sensor_id;sensor_type;location;lat;lon;timestamp;P1;durP1;ratioP1;P2;durP2;ratioP2
14876;SDS011;69691;48.172;17.070;2024-02-21T00:01:01;9.18;;;4.47;;
14876;SDS011;69691;48.172;17.070;2024-02-21T00:03:27;11.82;;;4.65;;
14876;SDS011;69691;48.172;17.070;2024-02-21T00:05:55;6.95;;;4.47;;
14876;SDS011;69691;48.172;17.070;2024-02-21T00:08:20;9.35;;;4.85;;
14876;SDS011;69691;48.172;17.070;2024-02-21T00:10:46;13.02;;;4.80;;
14876;SDS011;69691;48.172;17.070;2024-02-21T00:13:12;13.85;;;5.07;;
14876;SDS011;69691;48.172;17.070;2024-02-21T00:15:38;10.77;;;5.00;;
14876;SDS011;69691;48.172;17.070;2024-02-21T00:18:04;11.30;;;5.68;;
14876;SDS011;69691;48.172;17.070;2024-02-21T00:20:30;15.63;;;5.45;;
14876;SDS011;69691;48.172;17.070;2024-02-21T00:22:56;10.50;;;5.55;;
14876;SDS011;69691;48.172;17.070;2024-02-21T00:25:22;13.15;;;4.78;;
14876;SDS011;69691;48.172;17.070;2024-02-21T00:27:47;17.80;;;5.63;;
14876;SDS011;69691;48.172;17.070;2024-02-21T00:30:13;14.35;;;5.32;;
14876;SDS011;69691;48.172;17.070;2024-02-21T00:32:39;12.82;;;5.70;;
14876;SDS011;69691;48.172;17.070;2024-02-21T00:35:05;12.88;;;6.30;;
14876;SDS011;69691;48.172;17.070;2024-02-21T00:37:31;18.30;;;5.80;;
14876;SDS011;69691;48.172;17.070;2024-02-21T00:39:57;11.02;;;6.10;;
14876;SDS011;69691;48.172;17.070;2024-02-21T00:42:23;14.55;;;6.75;;
14876;SDS011;69691;48.172;17.070;2024-02-21T00:44:49;14.95;;;6.22;;
14876;SDS011;69691;48.172;17.070;2024-02-21T00:47:14;10.60;;;5.68;;
14876;SDS011;69691;48.172;17.070;2024-02-21T00:49:40;19.42;;;6.30;;
14876;SDS011;69691;48.172;17.070;2024-02-21T00:52:06;12.00;;;6.47;;
14876;SDS011;69691;48.172;17.070;2024-02-21T00:54:32;16.98;;;7.15;;
14876;SDS011;69691;48.172;17.070;2024-02-21T00:56:58;13.38;;;6.32;;
14876;SDS011;69691;48.172;17.070;2024-02-21T00:59:24;14.02;;;6.30;;
14876;SDS011;69691;48.172;17.070;2024-02-21T01:01:50;17.48;;;6.40;;
14876;SDS011;69691;48.172;17.070;2024-02-21T01:04:15;15.13;;;6.90;;
14876;SDS011;69691;48.172;17.070;2024-02-21T01:06:41;19.73;;;7.90;;
14876;SDS011;69691;48.172;17.070;2024-02-21T01:09:09;14.57;;;6.97;;
14876;SDS011;69691;48.172;17.070;2024-02-21T01:11:36;16.60;;;6.88;;
14876;SDS011;69691;48.172;17.070;2024-02-21T01:14:02;16.65;;;7.03;;
14876;SDS011;69691;48.172;17.070;2024-02-21T01:16:28;19.98;;;6.93;;
14876;SDS011;69691;48.172;17.070;2024-02-21T01:18:54;12.77;;;6.95;;
14876;SDS011;69691;48.172;17.070;2024-02-21T01:21:19;17.85;;;6.78;;
14876;SDS011;69691;48.172;17.070;2024-02-21T01:23:45;14.05;;;6.80;;
14876;SDS011;69691;48.172;17.070;2024-02-21T01:26:11;12.52;;;6.95;;
14876;SDS011;69691;48.172;17.070;2024-02-21T01:28:39;11.85;;;6.40;;
14876;SDS011;69691;48.172;17.070;2024-02-21T01:31:05;16.33;;;7.20;;
14876;SDS011;69691;48.172;17.070;2024-02-21T01:33:31;20.13;;;6.78;;
14876;SDS011;69691;48.172;17.070;2024-02-21T01:36:02;18.27;;;6.70;;
14876;SDS011;69691;48.172;17.070;2024-02-21T01:38:29;22.05;;;7.10;;
14876;SDS011;69691;48.172;17.070;2024-02-21T01:40:57;16.20;;;7.70;;
14876;SDS011;69691;48.172;17.070;2024-02-21T01:43:23;16.55;;;6.85;;
14876;SDS011;69691;48.172;17.070;2024-02-21T01:45:49;16.52;;;7.45;;
14876;SDS011;69691;48.172;17.070;2024-02-21T01:48:17;17.77;;;7.20;;
14876;SDS011;69691;48.172;17.070;2024-02-21T01:50:44;15.73;;;7.03;;
14876;SDS011;69691;48.172;17.070;2024-02-21T01:53:25;19.35;;;7.10;;
14876;SDS011;69691;48.172;17.070;2024-02-21T01:55:56;17.42;;;6.95;;
14876;SDS011;69691;48.172;17.070;2024-02-21T01:58:22;19.23;;;7.75;;
14876;SDS011;69691;48.172;17.070;2024-02-21T02:00:49;14.55;;;6.80;;
14876;SDS011;69691;48.172;17.070;2024-02-21T02:03:16;14.38;;;6.75;;
14876;SDS011;69691;48.172;17.070;2024-02-21T02:05:46;14.15;;;6.57;;
14876;SDS011;69691;48.172;17.070;2024-02-21T02:08:14;19.80;;;7.32;;
14876;SDS011;69691;48.172;17.070;2024-02-21T02:10:41;13.75;;;7.25;;
14876;SDS011;69691;48.172;17.070;2024-02-21T02:13:08;17.20;;;6.50;;
14876;SDS011;69691;48.172;17.070;2024-02-21T02:15:37;19.02;;;7.72;;
14876;SDS011;69691;48.172;17.070;2024-02-21T02:18:08;19.83;;;6.60;;
14876;SDS011;69691;48.172;17.070;2024-02-21T02:20:35;19.58;;;7.10;;
14876;SDS011;69691;48.172;17.070;2024-02-21T02:23:11;13.98;;;5.70;;
14876;SDS011;69691;48.172;17.070;2024-02-21T02:25:52;18.38;;;6.60;;
14876;SDS011;69691;48.172;17.070;2024-02-21T02:28:18;20.20;;;7.40;;
14876;SDS011;69691;48.172;17.070;2024-02-21T02:30:45;18.90;;;6.68;;
14876;SDS011;69691;48.172;17.070;2024-02-21T02:33:12;15.02;;;6.80;;
14876;SDS011;69691;48.172;17.070;2024-02-21T02:35:38;15.70;;;6.57;;
14876;SDS011;69691;48.172;17.070;2024-02-21T02:38:04;12.32;;;6.07;;
14876;SDS011;69691;48.172;17.070;2024-02-21T02:40:31;15.07;;;6.88;;
14876;SDS011;69691;48.172;17.070;2024-02-21T02:42:58;12.32;;;6.07;;
14876;SDS011;69691;48.172;17.070;2024-02-21T02:45:24;17.17;;;6.75;;
14876;SDS011;69691;48.172;17.070;2024-02-21T02:47:52;21.08;;;7.38;;
14876;SDS011;69691;48.172;17.070;2024-02-21T02:50:22;24.58;;;7.35;;
14876;SDS011;69691;48.172;17.070;2024-02-21T02:52:49;18.95;;;6.30;;
14876;SDS011;69691;48.172;17.070;2024-02-21T02:55:15;18.75;;;6.93;;
14876;SDS011;69691;48.172;17.070;2024-02-21T02:57:41;19.77;;;6.57;;
14876;SDS011;69691;48.172;17.070;2024-02-21T03:00:08;20.33;;;7.57;;
14876;SDS011;69691;48.172;17.070;2024-02-21T03:02:37;16.27;;;6.32;;
14876;SDS011;69691;48.172;17.070;2024-02-21T03:05:11;17.45;;;6.80;;
14876;SDS011;69691;48.172;17.070;2024-02-21T03:07:40;13.00;;;5.93;;
14876;SDS011;69691;48.172;17.070;2024-02-21T03:10:06;22.42;;;7.18;;
14876;SDS011;69691;48.172;17.070;2024-02-21T03:12:32;21.35;;;6.93;;
14876;SDS011;69691;48.172;17.070;2024-02-21T03:14:58;20.13;;;7.22;;
14876;SDS011;69691;48.172;17.070;2024-02-21T03:17:24;25.10;;;7.18;;
14876;SDS011;69691;48.172;17.070;2024-02-21T03:19:52;21.80;;;6.70;;
14876;SDS011;69691;48.172;17.070;2024-02-21T03:22:18;17.52;;;6.57;;
14876;SDS011;69691;48.172;17.070;2024-02-21T03:24:44;18.42;;;6.72;;
14876;SDS011;69691;48.172;17.070;2024-02-21T03:27:10;17.90;;;6.72;;
14876;SDS011;69691;48.172;17.070;2024-02-21T03:29:36;18.08;;;6.07;;
14876;SDS011;69691;48.172;17.070;2024-02-21T03:32:02;12.88;;;5.78;;
14876;SDS011;69691;48.172;17.070;2024-02-21T03:34:28;14.30;;;6.22;;
14876;SDS011;69691;48.172;17.070;2024-02-21T03:36:53;13.55;;;6.90;;
14876;SDS011;69691;48.172;17.070;2024-02-21T03:39:19;24.33;;;7.68;;
14876;SDS011;69691;48.172;17.070;2024-02-21T03:41:46;24.52;;;7.68;;
14876;SDS011;69691;48.172;17.070;2024-02-21T03:44:12;20.02;;;6.32;;
14876;SDS011;69691;48.172;17.070;2024-02-21T03:46:38;21.08;;;6.47;;
14876;SDS011;69691;48.172;17.070;2024-02-21T03:49:04;16.30;;;6.78;;
14876;SDS011;69691;48.172;17.070;2024-02-21T03:51:30;19.45;;;6.78;;
14876;SDS011;69691;48.172;17.070;2024-02-21T03:53:56;23.70;;;6.70;;
14876;SDS011;69691;48.172;17.070;2024-02-21T03:56:22;17.58;;;6.10;;
14876;SDS011;69691;48.172;17.070;2024-02-21T03:58:47;24.13;;;7.07;;
14876;SDS011;69691;48.172;17.070;2024-02-21T04:01:14;19.00;;;6.80;;
14876;SDS011;69691;48.172;17.070;2024-02-21T04:03:43;24.85;;;7.72;;
14876;SDS011;69691;48.172;17.070;2024-02-21T04:06:09;25.00;;;8.00;;
14876;SDS011;69691;48.172;17.070;2024-02-21T04:08:36;24.73;;;6.75;;
14876;SDS011;69691;48.172;17.070;2024-02-21T04:11:01;24.92;;;6.75;;
14876;SDS011;69691;48.172;17.070;2024-02-21T04:13:27;14.63;;;6.35;;
14876;SDS011;69691;48.172;17.070;2024-02-21T04:15:53;20.90;;;6.60;;
14876;SDS011;69691;48.172;17.070;2024-02-21T04:18:19;29.42;;;7.28;;
14876;SDS011;69691;48.172;17.070;2024-02-21T04:20:45;28.23;;;8.98;;
14876;SDS011;69691;48.172;17.070;2024-02-21T04:23:11;13.15;;;6.60;;
14876;SDS011;69691;48.172;17.070;2024-02-21T04:25:37;23.38;;;7.75;;
14876;SDS011;69691;48.172;17.070;2024-02-21T04:28:03;15.70;;;6.85;;
14876;SDS011;69691;48.172;17.070;2024-02-21T04:30:29;21.65;;;7.63;;
14876;SDS011;69691;48.172;17.070;2024-02-21T04:32:55;29.02;;;8.77;;
14876;SDS011;69691;48.172;17.070;2024-02-21T04:35:21;30.50;;;7.80;;
14876;SDS011;69691;48.172;17.070;2024-02-21T04:37:47;22.45;;;8.85;;
14876;SDS011;69691;48.172;17.070;2024-02-21T04:40:12;19.13;;;7.20;;
14876;SDS011;69691;48.172;17.070;2024-02-21T04:42:39;26.80;;;7.80;;
14876;SDS011;69691;48.172;17.070;2024-02-21T04:45:07;15.27;;;6.95;;
14876;SDS011;69691;48.172;17.070;2024-02-21T04:47:33;17.30;;;7.68;;
14876;SDS011;69691;48.172;17.070;2024-02-21T04:49:59;23.92;;;8.00;;
14876;SDS011;69691;48.172;17.070;2024-02-21T04:52:25;20.50;;;7.32;;
14876;SDS011;69691;48.172;17.070;2024-02-21T04:54:51;18.65;;;7.82;;
14876;SDS011;69691;48.172;17.070;2024-02-21T04:57:17;22.02;;;7.63;;
14876;SDS011;69691;48.172;17.070;2024-02-21T04:59:44;20.80;;;7.30;;
14876;SDS011;69691;48.172;17.070;2024-02-21T05:02:10;20.63;;;7.32;;
14876;SDS011;69691;48.172;17.070;2024-02-21T05:04:36;20.48;;;8.02;;
14876;SDS011;69691;48.172;17.070;2024-02-21T05:07:03;19.70;;;7.15;;
14876;SDS011;69691;48.172;17.070;2024-02-21T05:09:30;21.05;;;7.95;;
14876;SDS011;69691;48.172;17.070;2024-02-21T05:11:56;20.15;;;7.30;;
14876;SDS011;69691;48.172;17.070;2024-02-21T05:14:24;22.25;;;7.85;;
14876;SDS011;69691;48.172;17.070;2024-02-21T05:16:53;21.65;;;7.65;;
14876;SDS011;69691;48.172;17.070;2024-02-21T05:19:19;16.92;;;7.40;;
14876;SDS011;69691;48.172;17.070;2024-02-21T05:21:45;24.70;;;8.05;;
14876;SDS011;69691;48.172;17.070;2024-02-21T05:24:11;25.08;;;8.60;;
14876;SDS011;69691;48.172;17.070;2024-02-21T05:26:37;29.40;;;7.70;;
14876;SDS011;69691;48.172;17.070;2024-02-21T05:29:03;21.58;;;7.68;;
14876;SDS011;69691;48.172;17.070;2024-02-21T05:31:54;22.92;;;7.75;;
14876;SDS011;69691;48.172;17.070;2024-02-21T05:34:22;27.65;;;7.85;;
14876;SDS011;69691;48.172;17.070;2024-02-21T05:36:47;30.02;;;9.02;;
14876;SDS011;69691;48.172;17.070;2024-02-21T05:39:14;27.33;;;8.52;;
14876;SDS011;69691;48.172;17.070;2024-02-21T05:41:44;26.02;;;9.15;;
14876;SDS011;69691;48.172;17.070;2024-02-21T05:44:10;24.15;;;9.27;;
14876;SDS011;69691;48.172;17.070;2024-02-21T05:46:37;27.15;;;9.43;;
14876;SDS011;69691;48.172;17.070;2024-02-21T05:49:03;26.95;;;8.13;;
14876;SDS011;69691;48.172;17.070;2024-02-21T05:51:32;17.27;;;7.70;;
14876;SDS011;69691;48.172;17.070;2024-02-21T05:53:58;24.42;;;9.23;;
14876;SDS011;69691;48.172;17.070;2024-02-21T05:56:24;17.90;;;7.32;;
14876;SDS011;69691;48.172;17.070;2024-02-21T05:58:51;17.95;;;7.90;;
14876;SDS011;69691;48.172;17.070;2024-02-21T06:01:16;27.73;;;7.97;;
14876;SDS011;69691;48.172;17.070;2024-02-21T06:03:43;23.30;;;7.30;;
14876;SDS011;69691;48.172;17.070;2024-02-21T06:06:09;17.60;;;7.28;;
14876;SDS011;69691;48.172;17.070;2024-02-21T06:08:35;19.40;;;7.18;;
14876;SDS011;69691;48.172;17.070;2024-02-21T06:11:00;20.50;;;8.40;;
14876;SDS011;69691;48.172;17.070;2024-02-21T06:13:26;19.55;;;8.38;;
14876;SDS011;69691;48.172;17.070;2024-02-21T06:15:52;16.75;;;8.88;;
14876;SDS011;69691;48.172;17.070;2024-02-21T06:18:18;20.05;;;7.80;;
14876;SDS011;69691;48.172;17.070;2024-02-21T06:20:45;22.63;;;8.27;;
14876;SDS011;69691;48.172;17.070;2024-02-21T06:23:11;19.73;;;7.72;;
14876;SDS011;69691;48.172;17.070;2024-02-21T06:25:41;22.55;;;8.10;;
14876;SDS011;69691;48.172;17.070;2024-02-21T06:28:08;25.33;;;8.35;;
14876;SDS011;69691;48.172;17.070;2024-02-21T06:30:35;24.65;;;8.77;;
14876;SDS011;69691;48.172;17.070;2024-02-21T06:33:01;23.77;;;9.82;;
14876;SDS011;69691;48.172;17.070;2024-02-21T06:35:28;23.15;;;8.25;;
14876;SDS011;69691;48.172;17.070;2024-02-21T06:37:54;22.45;;;8.25;;
14876;SDS011;69691;48.172;17.070;2024-02-21T06:40:21;23.77;;;9.30;;
14876;SDS011;69691;48.172;17.070;2024-02-21T06:42:47;29.13;;;9.98;;
14876;SDS011;69691;48.172;17.070;2024-02-21T06:45:14;22.27;;;8.50;;
14876;SDS011;69691;48.172;17.070;2024-02-21T06:47:40;32.55;;;9.45;;
14876;SDS011;69691;48.172;17.070;2024-02-21T06:50:06;27.80;;;9.30;;
14876;SDS011;69691;48.172;17.070;2024-02-21T06:52:34;35.60;;;7.38;;
14876;SDS011;69691;48.172;17.070;2024-02-21T06:55:00;37.97;;;7.78;;
14876;SDS011;69691;48.172;17.070;2024-02-21T06:57:26;18.88;;;7.25;;
14876;SDS011;69691;48.172;17.070;2024-02-21T06:59:54;18.08;;;7.10;;
14876;SDS011;69691;48.172;17.070;2024-02-21T07:02:19;21.38;;;7.20;;
14876;SDS011;69691;48.172;17.070;2024-02-21T07:04:45;31.52;;;8.52;;
14876;SDS011;69691;48.172;17.070;2024-02-21T07:07:11;24.65;;;7.38;;
14876;SDS011;69691;48.172;17.070;2024-02-21T07:09:38;28.20;;;8.05;;
14876;SDS011;69691;48.172;17.070;2024-02-21T07:12:04;42.25;;;7.75;;
14876;SDS011;69691;48.172;17.070;2024-02-21T07:14:32;31.58;;;7.82;;
14876;SDS011;69691;48.172;17.070;2024-02-21T07:16:58;20.77;;;6.97;;
14876;SDS011;69691;48.172;17.070;2024-02-21T07:19:24;37.40;;;8.10;;
14876;SDS011;69691;48.172;17.070;2024-02-21T07:21:50;19.50;;;6.35;;
14876;SDS011;69691;48.172;17.070;2024-02-21T07:24:16;24.10;;;7.55;;
14876;SDS011;69691;48.172;17.070;2024-02-21T07:26:42;15.95;;;6.70;;
14876;SDS011;69691;48.172;17.070;2024-02-21T07:29:08;23.15;;;7.00;;
14876;SDS011;69691;48.172;17.070;2024-02-21T07:31:41;30.38;;;7.15;;
14876;SDS011;69691;48.172;17.070;2024-02-21T07:36:34;17.95;;;6.80;;
14876;SDS011;69691;48.172;17.070;2024-02-21T07:39:00;28.45;;;6.43;;
14876;SDS011;69691;48.172;17.070;2024-02-21T07:41:26;21.23;;;7.13;;
14876;SDS011;69691;48.172;17.070;2024-02-21T07:43:53;13.23;;;6.70;;
14876;SDS011;69691;48.172;17.070;2024-02-21T07:46:19;15.43;;;6.57;;
14876;SDS011;69691;48.172;17.070;2024-02-21T07:48:45;12.68;;;5.90;;
14876;SDS011;69691;48.172;17.070;2024-02-21T07:51:12;26.00;;;7.90;;
14876;SDS011;69691;48.172;17.070;2024-02-21T07:53:41;19.52;;;6.82;;
14876;SDS011;69691;48.172;17.070;2024-02-21T07:56:10;20.20;;;5.50;;
14876;SDS011;69691;48.172;17.070;2024-02-21T07:58:40;20.08;;;5.60;;
14876;SDS011;69691;48.172;17.070;2024-02-21T08:01:07;17.55;;;5.85;;
14876;SDS011;69691;48.172;17.070;2024-02-21T08:03:34;12.90;;;4.60;;
14876;SDS011;69691;48.172;17.070;2024-02-21T08:06:00;20.02;;;5.63;;
14876;SDS011;69691;48.172;17.070;2024-02-21T08:08:26;15.15;;;5.00;;
14876;SDS011;69691;48.172;17.070;2024-02-21T08:10:52;17.15;;;5.60;;
14876;SDS011;69691;48.172;17.070;2024-02-21T08:13:18;21.52;;;5.43;;
14876;SDS011;69691;48.172;17.070;2024-02-21T08:15:44;17.35;;;5.38;;
14876;SDS011;69691;48.172;17.070;2024-02-21T08:18:10;16.83;;;5.55;;
14876;SDS011;69691;48.172;17.070;2024-02-21T08:20:37;17.33;;;5.35;;
14876;SDS011;69691;48.172;17.070;2024-02-21T08:23:03;18.40;;;6.90;;
14876;SDS011;69691;48.172;17.070;2024-02-21T08:25:29;18.38;;;5.32;;
14876;SDS011;69691;48.172;17.070;2024-02-21T08:27:57;21.85;;;6.18;;
14876;SDS011;69691;48.172;17.070;2024-02-21T08:30:24;20.38;;;6.25;;
14876;SDS011;69691;48.172;17.070;2024-02-21T08:32:50;20.80;;;5.70;;
14876;SDS011;69691;48.172;17.070;2024-02-21T08:35:16;17.75;;;6.18;;
14876;SDS011;69691;48.172;17.070;2024-02-21T08:37:47;16.27;;;6.72;;
14876;SDS011;69691;48.172;17.070;2024-02-21T08:40:13;17.00;;;6.25;;
14876;SDS011;69691;48.172;17.070;2024-02-21T08:42:43;13.93;;;5.45;;
14876;SDS011;69691;48.172;17.070;2024-02-21T08:45:09;24.45;;;5.95;;
14876;SDS011;69691;48.172;17.070;2024-02-21T08:47:35;20.80;;;5.30;;
14876;SDS011;69691;48.172;17.070;2024-02-21T08:50:04;10.77;;;4.60;;
14876;SDS011;69691;48.172;17.070;2024-02-21T08:52:31;18.73;;;5.15;;
14876;SDS011;69691;48.172;17.070;2024-02-21T08:54:57;15.00;;;4.45;;
14876;SDS011;69691;48.172;17.070;2024-02-21T08:57:23;19.40;;;5.38;;
14876;SDS011;69691;48.172;17.070;2024-02-21T08:59:49;19.70;;;4.90;;
14876;SDS011;69691;48.172;17.070;2024-02-21T09:02:15;13.90;;;4.68;;
14876;SDS011;69691;48.172;17.070;2024-02-21T09:04:44;15.77;;;4.93;;
14876;SDS011;69691;48.172;17.070;2024-02-21T09:07:10;19.80;;;5.15;;
14876;SDS011;69691;48.172;17.070;2024-02-21T09:09:36;14.57;;;4.50;;
14876;SDS011;69691;48.172;17.070;2024-02-21T09:12:06;13.25;;;4.18;;
14876;SDS011;69691;48.172;17.070;2024-02-21T09:14:33;11.40;;;3.92;;
14876;SDS011;69691;48.172;17.070;2024-02-21T09:16:59;8.90;;;4.72;;
14876;SDS011;69691;48.172;17.070;2024-02-21T09:19:25;12.50;;;5.25;;
14876;SDS011;69691;48.172;17.070;2024-02-21T09:21:51;11.93;;;4.05;;
14876;SDS011;69691;48.172;17.070;2024-02-21T09:24:17;13.75;;;4.47;;
14876;SDS011;69691;48.172;17.070;2024-02-21T09:26:43;10.93;;;4.03;;
14876;SDS011;69691;48.172;17.070;2024-02-21T09:29:09;12.18;;;3.83;;
14876;SDS011;69691;48.172;17.070;2024-02-21T09:31:35;12.30;;;4.18;;
14876;SDS011;69691;48.172;17.070;2024-02-21T09:34:04;10.63;;;3.92;;
14876;SDS011;69691;48.172;17.070;2024-02-21T09:36:30;13.35;;;4.55;;
14876;SDS011;69691;48.172;17.070;2024-02-21T09:38:56;12.55;;;4.55;;
14876;SDS011;69691;48.172;17.070;2024-02-21T09:41:26;9.07;;;3.97;;
14876;SDS011;69691;48.172;17.070;2024-02-21T09:43:55;11.20;;;3.90;;
14876;SDS011;69691;48.172;17.070;2024-02-21T09:46:30;10.88;;;4.25;;
14876;SDS011;69691;48.172;17.070;2024-02-21T09:49:31;10.70;;;3.85;;
14876;SDS011;69691;48.172;17.070;2024-02-21T09:51:58;11.73;;;4.47;;
14876;SDS011;69691;48.172;17.070;2024-02-21T09:54:28;9.57;;;4.32;;
14876;SDS011;69691;48.172;17.070;2024-02-21T09:56:56;17.50;;;4.43;;
14876;SDS011;69691;48.172;17.070;2024-02-21T09:59:22;8.82;;;3.75;;
14876;SDS011;69691;48.172;17.070;2024-02-21T10:01:50;9.18;;;4.28;;
14876;SDS011;69691;48.172;17.070;2024-02-21T10:04:16;13.50;;;4.22;;
14876;SDS011;69691;48.172;17.070;2024-02-21T10:06:44;15.15;;;4.10;;
14876;SDS011;69691;48.172;17.070;2024-02-21T10:09:19;12.15;;;3.95;;
14876;SDS011;69691;48.172;17.070;2024-02-21T10:12:08;14.55;;;3.72;;
14876;SDS011;69691;48.172;17.070;2024-02-21T10:14:39;22.65;;;4.20;;
14876;SDS011;69691;48.172;17.070;2024-02-21T10:17:05;7.90;;;3.72;;
14876;SDS011;69691;48.172;17.070;2024-02-21T10:19:34;10.38;;;3.67;;
14876;SDS011;69691;48.172;17.070;2024-02-21T10:22:01;14.77;;;3.78;;
14876;SDS011;69691;48.172;17.070;2024-02-21T10:24:33;6.50;;;3.28;;
14876;SDS011;69691;48.172;17.070;2024-02-21T10:27:06;14.10;;;3.33;;
14876;SDS011;69691;48.172;17.070;2024-02-21T10:29:35;13.20;;;4.47;;
14876;SDS011;69691;48.172;17.070;2024-02-21T10:32:05;6.32;;;3.05;;
14876;SDS011;69691;48.172;17.070;2024-02-21T10:34:38;14.50;;;3.67;;
14876;SDS011;69691;48.172;17.070;2024-02-21T10:37:08;9.88;;;3.80;;
14876;SDS011;69691;48.172;17.070;2024-02-21T10:39:37;10.35;;;4.15;;
14876;SDS011;69691;48.172;17.070;2024-02-21T10:42:05;11.45;;;4.50;;
14876;SDS011;69691;48.172;17.070;2024-02-21T10:44:36;10.77;;;4.38;;
14876;SDS011;69691;48.172;17.070;2024-02-21T10:47:05;9.18;;;4.28;;
14876;SDS011;69691;48.172;17.070;2024-02-21T10:49:44;12.63;;;4.43;;
14876;SDS011;69691;48.172;17.070;2024-02-21T10:52:28;13.70;;;5.10;;
14876;SDS011;69691;48.172;17.070;2024-02-21T10:55:30;8.73;;;3.78;;
14876;SDS011;69691;48.172;17.070;2024-02-21T10:58:04;8.85;;;3.40;;
14876;SDS011;69691;48.172;17.070;2024-02-21T11:00:30;13.50;;;4.32;;
14876;SDS011;69691;48.172;17.070;2024-02-21T11:02:57;7.80;;;4.05;;
14876;SDS011;69691;48.172;17.070;2024-02-21T11:05:24;10.25;;;4.20;;
14876;SDS011;69691;48.172;17.070;2024-02-21T11:07:53;13.45;;;4.25;;
14876;SDS011;69691;48.172;17.070;2024-02-21T11:10:23;14.05;;;4.97;;
14876;SDS011;69691;48.172;17.070;2024-02-21T11:12:54;11.02;;;4.32;;
14876;SDS011;69691;48.172;17.070;2024-02-21T11:15:39;9.43;;;4.03;;
14876;SDS011;69691;48.172;17.070;2024-02-21T11:18:05;13.35;;;5.03;;
14876;SDS011;69691;48.172;17.070;2024-02-21T11:23:01;14.35;;;4.18;;
14876;SDS011;69691;48.172;17.070;2024-02-21T11:25:27;11.95;;;4.68;;
14876;SDS011;69691;48.172;17.070;2024-02-21T11:28:04;16.90;;;5.13;;
14876;SDS011;69691;48.172;17.070;2024-02-21T11:30:35;14.32;;;4.47;;
14876;SDS011;69691;48.172;17.070;2024-02-21T11:33:03;16.25;;;4.22;;
14876;SDS011;69691;48.172;17.070;2024-02-21T11:35:32;14.45;;;4.57;;
14876;SDS011;69691;48.172;17.070;2024-02-21T11:38:11;13.43;;;4.10;;
14876;SDS011;69691;48.172;17.070;2024-02-21T11:40:44;7.18;;;4.53;;
14876;SDS011;69691;48.172;17.070;2024-02-21T11:43:11;10.73;;;3.90;;
14876;SDS011;69691;48.172;17.070;2024-02-21T11:45:37;12.88;;;4.03;;
14876;SDS011;69691;48.172;17.070;2024-02-21T11:48:07;12.32;;;3.65;;
14876;SDS011;69691;48.172;17.070;2024-02-21T11:50:36;9.65;;;4.32;;
14876;SDS011;69691;48.172;17.070;2024-02-21T11:53:04;10.95;;;5.03;;
14876;SDS011;69691;48.172;17.070;2024-02-21T11:55:30;13.32;;;3.72;;
14876;SDS011;69691;48.172;17.070;2024-02-21T11:57:56;12.55;;;4.93;;
14876;SDS011;69691;48.172;17.070;2024-02-21T12:00:22;12.95;;;4.90;;
14876;SDS011;69691;48.172;17.070;2024-02-21T12:02:52;20.20;;;4.00;;
14876;SDS011;69691;48.172;17.070;2024-02-21T12:05:18;9.40;;;4.05;;
14876;SDS011;69691;48.172;17.070;2024-02-21T12:07:45;13.25;;;4.22;;
14876;SDS011;69691;48.172;17.070;2024-02-21T12:10:11;8.38;;;3.53;;
14876;SDS011;69691;48.172;17.070;2024-02-21T12:12:38;11.02;;;4.05;;
14876;SDS011;69691;48.172;17.070;2024-02-21T12:15:05;13.00;;;4.85;;
14876;SDS011;69691;48.172;17.070;2024-02-21T12:17:33;12.98;;;5.03;;
14876;SDS011;69691;48.172;17.070;2024-02-21T12:20:00;7.82;;;3.80;;
14876;SDS011;69691;48.172;17.070;2024-02-21T12:22:37;11.35;;;3.90;;
14876;SDS011;69691;48.172;17.070;2024-02-21T12:25:03;9.40;;;3.97;;
14876;SDS011;69691;48.172;17.070;2024-02-21T12:27:40;9.85;;;3.80;;
14876;SDS011;69691;48.172;17.070;2024-02-21T12:30:06;9.55;;;3.50;;
14876;SDS011;69691;48.172;17.070;2024-02-21T12:32:35;14.13;;;4.43;;
14876;SDS011;69691;48.172;17.070;2024-02-21T12:35:01;13.00;;;4.20;;
14876;SDS011;69691;48.172;17.070;2024-02-21T12:37:28;16.38;;;4.60;;
14876;SDS011;69691;48.172;17.070;2024-02-21T12:39:54;8.95;;;4.07;;
14876;SDS011;69691;48.172;17.070;2024-02-21T12:42:19;11.43;;;4.13;;
14876;SDS011;69691;48.172;17.070;2024-02-21T12:44:46;12.02;;;5.70;;
14876;SDS011;69691;48.172;17.070;2024-02-21T12:47:11;8.07;;;4.45;;
14876;SDS011;69691;48.172;17.070;2024-02-21T12:49:37;11.52;;;4.78;;
14876;SDS011;69691;48.172;17.070;2024-02-21T12:52:03;9.43;;;3.97;;
14876;SDS011;69691;48.172;17.070;2024-02-21T12:54:29;6.47;;;3.70;;
14876;SDS011;69691;48.172;17.070;2024-02-21T12:56:56;10.70;;;4.53;;
14876;SDS011;69691;48.172;17.070;2024-02-21T12:59:22;12.82;;;4.18;;
14876;SDS011;69691;48.172;17.070;2024-02-21T13:01:48;13.05;;;4.60;;
14876;SDS011;69691;48.172;17.070;2024-02-21T13:04:14;11.65;;;4.35;;
14876;SDS011;69691;48.172;17.070;2024-02-21T13:06:39;9.73;;;4.10;;
14876;SDS011;69691;48.172;17.070;2024-02-21T13:09:05;12.10;;;4.25;;
14876;SDS011;69691;48.172;17.070;2024-02-21T13:11:34;11.32;;;4.50;;
14876;SDS011;69691;48.172;17.070;2024-02-21T13:14:00;16.50;;;4.35;;
14876;SDS011;69691;48.172;17.070;2024-02-21T13:16:26;7.07;;;4.10;;
14876;SDS011;69691;48.172;17.070;2024-02-21T13:18:52;12.63;;;4.93;;
14876;SDS011;69691;48.172;17.070;2024-02-21T13:21:18;17.23;;;5.18;;
14876;SDS011;69691;48.172;17.070;2024-02-21T13:23:44;10.25;;;4.60;;
14876;SDS011;69691;48.172;17.070;2024-02-21T13:26:10;10.98;;;4.10;;
14876;SDS011;69691;48.172;17.070;2024-02-21T13:28:36;12.50;;;4.50;;
14876;SDS011;69691;48.172;17.070;2024-02-21T13:31:02;13.23;;;3.83;;
14876;SDS011;69691;48.172;17.070;2024-02-21T13:33:28;9.50;;;4.40;;
14876;SDS011;69691;48.172;17.070;2024-02-21T13:35:54;12.80;;;4.13;;
14876;SDS011;69691;48.172;17.070;2024-02-21T13:38:20;14.10;;;4.28;;
14876;SDS011;69691;48.172;17.070;2024-02-21T13:40:46;10.07;;;4.40;;
14876;SDS011;69691;48.172;17.070;2024-02-21T13:43:11;13.43;;;3.95;;
14876;SDS011;69691;48.172;17.070;2024-02-21T13:45:38;12.55;;;4.63;;
14876;SDS011;69691;48.172;17.070;2024-02-21T13:48:06;12.63;;;4.22;;
14876;SDS011;69691;48.172;17.070;2024-02-21T13:50:36;10.35;;;4.15;;
14876;SDS011;69691;48.172;17.070;2024-02-21T13:53:08;9.75;;;3.83;;
14876;SDS011;69691;48.172;17.070;2024-02-21T13:55:35;9.85;;;4.10;;
14876;SDS011;69691;48.172;17.070;2024-02-21T13:58:01;10.93;;;4.05;;
14876;SDS011;69691;48.172;17.070;2024-02-21T14:00:28;13.23;;;4.40;;
14876;SDS011;69691;48.172;17.070;2024-02-21T14:02:54;10.38;;;4.03;;
14876;SDS011;69691;48.172;17.070;2024-02-21T14:05:20;11.13;;;4.30;;
14876;SDS011;69691;48.172;17.070;2024-02-21T14:07:46;14.93;;;4.03;;
14876;SDS011;69691;48.172;17.070;2024-02-21T14:10:11;11.05;;;3.92;;
14876;SDS011;69691;48.172;17.070;2024-02-21T14:12:37;12.52;;;3.70;;
14876;SDS011;69691;48.172;17.070;2024-02-21T14:15:03;6.57;;;3.63;;
14876;SDS011;69691;48.172;17.070;2024-02-21T14:17:30;10.35;;;3.50;;
14876;SDS011;69691;48.172;17.070;2024-02-21T14:19:56;8.45;;;3.33;;
14876;SDS011;69691;48.172;17.070;2024-02-21T14:22:22;10.38;;;3.88;;
14876;SDS011;69691;48.172;17.070;2024-02-21T14:24:47;10.35;;;3.63;;
14876;SDS011;69691;48.172;17.070;2024-02-21T14:27:13;8.75;;;3.72;;
14876;SDS011;69691;48.172;17.070;2024-02-21T14:29:39;10.88;;;3.95;;